This is the latest recevied weather packets stored in our database for station/object N4NVD-13. If no packets are shown the sender has not sent any weather packets the latest 10 day(s).
| Time | Temp. | Humidity | Pressure | Rain* | Wind** | Luminosity | Snow |
|---|---|---|---|---|---|---|---|
| 1777905533 | 21.67° C | 78% | 1014.7 hPa | 0 mm | - | 393 W/m² | - |
| 1777905230 | 21.67° C | 78% | 1014.6 hPa | 0 mm | - | 303 W/m² | - |
| 1777904928 | 21.67° C | 78% | 1014.7 hPa | 0 mm | - | 484 W/m² | - |
| 1777904624 | 21.11° C | 78% | 1014.7 hPa | 0 mm | - | 322 W/m² | - |
| 1777904322 | 21.11° C | 77% | 1014.8 hPa | 0 mm | - | 358 W/m² | - |
| 1777904019 | 21.11° C | 78% | 1014.6 hPa | 0 mm | - | 290 W/m² | - |
| 1777903715 | 20.56° C | 78% | 1014.9 hPa | 0 mm | - | 416 W/m² | - |
| 1777903411 | 20.56° C | 79% | 1014.8 hPa | 0 mm | - | 394 W/m² | - |
| 1777903108 | 20.56° C | 78% | 1014.7 hPa | 0 mm | - | 324 W/m² | - |
| 1777902804 | 20° C | 79% | 1014.7 hPa | 0 mm | - | 214 W/m² | - |
| 1777902502 | 20° C | 79% | 1015.1 hPa | 0 mm | - | 232 W/m² | - |
| 1777902198 | 20° C | 79% | 1015.1 hPa | 0 mm | - | 267 W/m² | - |
| 1777901897 | 19.44° C | 80% | 1015.1 hPa | 0 mm | - | 193 W/m² | - |
| 1777901594 | 19.44° C | 80% | 1014.9 hPa | 0 mm | - | 247 W/m² | - |
| 1777901291 | 18.89° C | 81% | 1014.7 hPa | 0 mm | - | 184 W/m² | - |
| 1777900989 | 18.89° C | 82% | 1014.6 hPa | 0 mm | - | 256 W/m² | - |
| 1777900687 | 18.33° C | 82% | 1014.6 hPa | 0 mm | - | 166 W/m² | - |
| 1777900383 | 18.33° C | 83% | 1014.8 hPa | 0 mm | - | 130 W/m² | - |
| 1777900080 | 18.33° C | 83% | 1014.7 hPa | 0 mm | - | 117 W/m² | - |
| 1777899776 | 17.78° C | 85% | 1015 hPa | 0 mm | - | 103 W/m² | - |
| 1777899473 | 17.22° C | 88% | 1014.9 hPa | 0 mm | - | 93 W/m² | - |
| 1777899171 | 16.11° C | 90% | 1014.9 hPa | 0 mm | - | 79 W/m² | - |
| 1777898868 | 16.11° C | 91% | 1014.8 hPa | 0 mm | - | 57 W/m² | - |
| 1777898566 | 15.56° C | 96% | 1014.6 hPa | 0 mm | - | 82 W/m² | - |
| 1777898263 | 15° C | 98% | 1014.6 hPa | 0 mm | - | 53 W/m² | - |
* Rain latest hour (hover to see other rain measurements)
** Current wind speed in m/s (hover to see current wind gust speed)